Decoded Metar for KCUT (CUSTER in SD, USA) (IATA:CUT) | Meteo·Mobile Aviation Weather
aviador You're here:

KCUT Decoded Metar

CUSTER in SD, USA
Report Time2019-03-21 21:53:00
UTC Time2019-03-21 22:12:28
Flight Rules vfr VFR
Wind090° at 08 kt
W.Decomp.*RWY 08: 8.0 kt HW 0.1 kt LCW
W.Rank090° ranks 21
Current wind is above 090° avg. (6.9)
Visibility9999 m
Phenomena:N/A
Clouds:N/A
Expected CloudBase > 6,800 ft AGL from Temp-Dew spread
CeilingNone
Temp11°C (ISA +7)
Dew Point-6°C (30% RH)
AAT5.4°C
QNH1020 hPa
Density Alt6,332 ft
Elevation5,659 ft
Report Wrong Elevation
Raw Report
KCUT 212153Z AUTO 09008KT 10SM CLR 11/M06 A3012 RMK AO2 SLP201
T01061056=

Extra information for KCUT:More info

Metar Taf Metar & Taf Last 4 Metars F.Rules Stats Wind Profile Meteogram Temp Stats Airport Information Weather charts Add Link Nearby VenuesMetar ALERT Operation Metar Decoded Social comments

AIRNAV info for KCUT